createdAt,value
2018-11-23T00:00:20.504Z,80.97
2018-11-23T00:02:49.496Z,77.47
2018-11-23T00:05:17.990Z,77.83
2018-11-23T00:10:39.652Z,81.67
2018-11-23T00:16:00.976Z,84.93
2018-11-23T00:18:29.287Z,83.97
2018-11-23T00:20:57.491Z,85.60
2018-11-23T00:23:26.426Z,85.70
2018-11-23T00:25:56.300Z,87.13
2018-11-23T00:28:25.457Z,83.63
2018-11-23T00:30:55.249Z,80.50
2018-11-23T00:33:25.777Z,83.73
2018-11-23T00:35:54.594Z,80.67
2018-11-23T00:38:23.892Z,84.37
2018-11-23T00:40:52.524Z,83.87
2018-11-23T00:43:27.511Z,89.47
2018-11-23T00:45:55.796Z,79.83
2018-11-23T00:48:25.919Z,86.03
2018-11-23T00:50:54.210Z,80.93
2018-11-23T00:53:23.034Z,79.30
2018-11-23T00:55:51.606Z,85.40
2018-11-23T00:58:20.204Z,84.77
2018-11-23T01:00:48.537Z,81.87
2018-11-23T01:03:17.730Z,84.47
2018-11-23T01:05:45.987Z,81.33
2018-11-23T01:08:16.589Z,82.83
2018-11-23T01:10:44.954Z,83.07
2018-11-23T01:13:14.401Z,78.37
2018-11-23T01:15:43.490Z,81.20
2018-11-23T01:18:12.207Z,83.03
2018-11-23T01:20:40.934Z,81.77
2018-11-23T01:23:09.706Z,74.97
2018-11-23T01:25:37.964Z,75.07
2018-11-23T01:28:06.381Z,81.57
2018-11-23T01:30:34.622Z,78.03
2018-11-23T01:33:02.818Z,78.27
2018-11-23T01:35:31.042Z,80.73
2018-11-23T01:37:59.298Z,89.20
2018-11-23T01:40:28.897Z,83.97
2018-11-23T01:42:57.766Z,82.17
2018-11-23T01:45:25.993Z,82.30
2018-11-23T01:47:54.323Z,81.33
2018-11-23T01:50:24.993Z,79.57
2018-11-23T01:52:53.840Z,78.77
2018-11-23T01:55:22.788Z,79.80
2018-11-23T01:57:51.221Z,82.23
2018-11-23T02:00:20.615Z,76.47
2018-11-23T02:02:49.636Z,79.10
2018-11-23T02:05:17.938Z,77.90
2018-11-23T02:07:46.351Z,83.77
2018-11-23T02:10:16.347Z,79.30
2018-11-23T02:12:45.648Z,87.50
2018-11-23T02:15:17.673Z,79.07
2018-11-23T02:17:47.711Z,81.37
2018-11-23T02:20:17.066Z,86.23
2018-11-23T02:22:45.385Z,82.87
2018-11-23T02:25:13.688Z,78.30
2018-11-23T02:27:41.893Z,84.80
2018-11-23T02:30:14.997Z,82.43
2018-11-23T02:32:43.461Z,89.17
2018-11-23T02:35:11.860Z,82.40
2018-11-23T02:37:40.370Z,80.37
2018-11-23T02:40:16.743Z,81.10
2018-11-23T02:42:45.097Z,82.77
2018-11-23T02:45:16.781Z,80.47
2018-11-23T02:47:46.813Z,82.83
2018-11-23T02:50:16.536Z,84.63
2018-11-23T02:52:45.659Z,82.47
2018-11-23T02:55:15.692Z,80.70
2018-11-23T02:57:44.795Z,85.73
2018-11-23T03:00:16.895Z,83.27
2018-11-23T03:02:45.867Z,80.57
2018-11-23T03:05:16.856Z,81.00
2018-11-23T03:07:45.173Z,79.53
2018-11-23T03:10:14.251Z,84.40
2018-11-23T03:12:43.153Z,84.30
2018-11-23T03:15:14.045Z,83.67
2018-11-23T03:17:42.877Z,80.37
2018-11-23T03:20:13.621Z,86.20
2018-11-23T03:22:41.851Z,87.03
2018-11-23T03:25:11.005Z,82.60
2018-11-23T03:27:39.323Z,79.60
2018-11-23T03:30:17.481Z,87.27
2018-11-23T03:32:46.863Z,78.67
2018-11-23T03:35:15.140Z,85.47
2018-11-23T03:37:45.480Z,80.57
2018-11-23T03:40:14.045Z,81.40
2018-11-23T03:42:42.369Z,74.60
2018-11-23T03:45:11.725Z,73.83
2018-11-23T03:47:40.429Z,72.20
2018-11-23T03:50:09.842Z,75.53
2018-11-23T03:52:38.066Z,78.10
2018-11-23T03:55:06.654Z,80.20
2018-11-23T03:57:35.951Z,78.40
2018-11-23T04:00:07.053Z,75.10
2018-11-23T04:02:35.759Z,78.30
2018-11-23T04:05:05.097Z,77.03
2018-11-23T04:07:34.874Z,75.33
2018-11-23T04:10:03.134Z,79.97
2018-11-23T04:12:32.371Z,78.40
2018-11-23T04:15:00.680Z,81.93
2018-11-23T04:17:29.645Z,81.10
2018-11-23T04:19:58.205Z,76.97
2018-11-23T04:22:26.532Z,83.50
2018-11-23T04:24:54.759Z,79.07
2018-11-23T04:27:23.073Z,82.47
2018-11-23T04:29:52.077Z,78.73
2018-11-23T04:32:20.574Z,81.53
2018-11-23T04:34:48.811Z,77.67
2018-11-23T04:37:17.094Z,76.50
2018-11-23T04:39:45.338Z,77.67
2018-11-23T04:42:13.596Z,79.70
2018-11-23T04:44:42.499Z,78.83
2018-11-23T04:47:11.487Z,78.27
2018-11-23T04:49:40.003Z,80.93
2018-11-23T04:52:08.995Z,80.17
2018-11-23T04:54:37.436Z,81.43
2018-11-23T04:57:05.806Z,78.27
2018-11-23T04:59:34.187Z,77.20
2018-11-23T05:02:02.429Z,76.90
2018-11-23T05:04:30.735Z,79.53
2018-11-23T05:06:58.954Z,76.77
2018-11-23T05:09:27.166Z,79.87
2018-11-23T05:11:55.423Z,82.93
2018-11-23T05:14:23.659Z,80.23
2018-11-23T05:16:51.891Z,83.50
2018-11-23T05:19:20.159Z,79.17
2018-11-23T05:21:48.369Z,78.67
2018-11-23T05:24:16.621Z,76.60
2018-11-23T05:26:45.142Z,82.47
2018-11-23T05:29:13.388Z,78.73
2018-11-23T05:31:41.607Z,74.93
2018-11-23T05:34:09.837Z,79.97
2018-11-23T05:36:38.346Z,73.73
2018-11-23T05:39:09.417Z,77.90
2018-11-23T05:41:38.262Z,84.63
2018-11-23T05:44:06.604Z,78.27
2018-11-23T05:46:36.096Z,79.20
2018-11-23T05:49:04.448Z,88.23
2018-11-23T05:51:33.050Z,81.73
2018-11-23T05:54:01.306Z,82.37
2018-11-23T05:56:30.735Z,82.93
2018-11-23T05:59:00.670Z,82.47
2018-11-23T06:01:29.023Z,85.53
2018-11-23T06:03:57.616Z,86.63
2018-11-23T06:06:27.029Z,80.73
2018-11-23T06:08:56.222Z,79.87
2018-11-23T06:11:25.163Z,87.47
2018-11-23T06:13:53.856Z,87.03
2018-11-23T06:16:22.380Z,90.83
2018-11-23T06:18:51.001Z,91.57
2018-11-23T06:21:19.451Z,87.53
2018-11-23T06:23:47.941Z,91.70
2018-11-23T06:26:22.686Z,85.80
2018-11-23T06:28:51.834Z,86.73
2018-11-23T06:31:21.032Z,92.67
2018-11-23T06:33:50.021Z,88.50
2018-11-23T06:36:18.891Z,86.97
2018-11-23T06:38:48.555Z,88.10
2018-11-23T06:41:17.278Z,88.00
2018-11-23T06:43:47.485Z,87.33
2018-11-23T06:46:15.739Z,86.13
2018-11-23T06:48:44.342Z,86.77
2018-11-23T06:51:12.624Z,84.80
2018-11-23T06:53:40.932Z,89.53
2018-11-23T06:56:10.446Z,82.77
2018-11-23T06:58:38.779Z,85.60
2018-11-23T07:01:07.410Z,85.37
2018-11-23T07:03:35.653Z,88.33
2018-11-23T07:06:03.902Z,84.87
2018-11-23T07:08:32.104Z,88.87
2018-11-23T07:11:01.645Z,89.90
2018-11-23T07:13:31.318Z,93.63
2018-11-23T07:15:59.601Z,89.57
2018-11-23T07:18:28.111Z,87.70
2018-11-23T07:20:56.508Z,91.17
2018-11-23T07:23:24.871Z,86.17
2018-11-23T07:25:53.371Z,85.93
2018-11-23T07:28:21.665Z,90.00
2018-11-23T07:30:49.947Z,85.53
2018-11-23T07:33:18.203Z,87.40
2018-11-23T07:35:46.531Z,81.47
2018-11-23T07:38:14.820Z,84.87
2018-11-23T07:40:54.998Z,89.07
2018-11-23T07:43:23.359Z,80.53
2018-11-23T07:45:51.650Z,81.00
2018-11-23T07:48:19.997Z,89.07
2018-11-23T07:50:48.619Z,84.40
2018-11-23T07:53:17.170Z,74.93
2018-11-23T07:55:45.823Z,87.27
2018-11-23T07:58:14.958Z,78.40
2018-11-23T08:00:44.869Z,79.03
2018-11-23T08:03:13.238Z,75.53
2018-11-23T08:05:42.159Z,79.47
2018-11-23T08:08:10.459Z,75.17
2018-11-23T08:10:38.042Z,82.43
2018-11-23T08:13:06.792Z,77.80
2018-11-23T08:15:35.489Z,79.87
2018-11-23T08:18:04.667Z,77.70
2018-11-23T08:20:33.679Z,80.57
2018-11-23T08:23:02.445Z,76.00
2018-11-23T08:25:30.964Z,79.20
2018-11-23T08:27:59.226Z,80.90
2018-11-23T08:30:31.696Z,82.57
2018-11-23T08:33:00.929Z,83.50
2018-11-23T08:35:30.178Z,80.03
2018-11-23T08:37:59.475Z,82.00
2018-11-23T08:40:28.409Z,80.50
2018-11-23T08:42:57.689Z,81.20
2018-11-23T08:45:28.026Z,77.87
2018-11-23T08:47:58.377Z,74.83
2018-11-23T08:50:36.601Z,76.67
2018-11-23T08:53:06.184Z,74.80
2018-11-23T08:55:34.485Z,82.03
2018-11-23T08:58:03.865Z,70.53
2018-11-23T09:00:32.625Z,69.17
2018-11-23T09:03:02.252Z,73.00
2018-11-23T09:05:30.672Z,74.93
2018-11-23T09:07:59.962Z,73.13
2018-11-23T09:10:31.071Z,70.40
2018-11-23T09:13:01.406Z,73.93
2018-11-23T09:15:29.755Z,77.27
2018-11-23T09:17:57.987Z,73.30
2018-11-23T09:20:26.259Z,69.73
2018-11-23T09:22:54.532Z,78.67
2018-11-23T09:25:23.421Z,78.67
2018-11-23T09:27:51.715Z,74.73
2018-11-23T09:30:22.921Z,73.83
2018-11-23T09:32:53.377Z,65.37
2018-11-23T09:35:21.771Z,68.80
2018-11-23T09:37:50.530Z,68.00
2018-11-23T09:40:20.945Z,67.60
2018-11-23T09:42:49.516Z,68.20
2018-11-23T09:45:20.689Z,70.10
2018-11-23T09:47:50.786Z,72.93
2018-11-23T09:50:23.576Z,76.13
2018-11-23T09:52:53.682Z,68.00
2018-11-23T09:55:24.042Z,73.77
2018-11-23T09:57:52.504Z,71.33
2018-11-23T10:00:30.101Z,70.00
2018-11-23T10:02:59.209Z,70.17
2018-11-23T10:05:28.345Z,63.63
2018-11-23T10:07:58.645Z,71.67
2018-11-23T10:10:27.632Z,70.23
2018-11-23T10:12:57.442Z,73.10
2018-11-23T10:15:26.970Z,67.10
2018-11-23T10:17:57.672Z,67.03
2018-11-23T10:23:19.232Z,66.33
2018-11-23T10:25:47.964Z,71.57
2018-11-23T10:28:16.504Z,78.30
2018-11-23T10:30:45.622Z,78.83
2018-11-23T10:33:14.199Z,71.27
2018-11-23T10:35:42.560Z,79.23
2018-11-23T10:38:12.464Z,72.73
2018-11-23T10:40:41.171Z,73.80
2018-11-23T10:43:10.355Z,79.77
2018-11-23T10:45:39.481Z,77.83
2018-11-23T10:48:08.636Z,77.33
2018-11-23T10:50:38.464Z,79.97
2018-11-23T10:53:07.786Z,82.00
2018-11-23T10:55:37.608Z,83.43
2018-11-23T10:58:06.997Z,77.60
2018-11-23T11:00:41.020Z,80.77
2018-11-23T11:03:15.233Z,78.17
2018-11-23T11:05:49.266Z,80.13
2018-11-23T11:08:18.340Z,76.23
2018-11-23T11:10:46.648Z,76.77
2018-11-23T11:13:14.905Z,81.10
2018-11-23T11:15:43.182Z,81.20
2018-11-23T11:18:11.424Z,81.83
2018-11-23T11:20:39.722Z,77.13
2018-11-23T11:23:08.009Z,80.43
2018-11-23T11:25:36.319Z,78.37
2018-11-23T11:28:04.552Z,74.60
2018-11-23T11:30:32.834Z,81.73
2018-11-23T11:33:01.093Z,77.23
2018-11-23T11:35:29.396Z,79.60
2018-11-23T11:37:57.677Z,74.53
2018-11-23T11:40:25.932Z,70.10
2018-11-23T11:42:55.122Z,68.97
2018-11-23T11:45:23.401Z,68.40
2018-11-23T11:47:51.668Z,77.53
2018-11-23T11:50:19.888Z,72.33
2018-11-23T11:52:48.730Z,74.57
2018-11-23T11:55:18.228Z,77.87
2018-11-23T11:57:47.299Z,71.93
2018-11-23T12:00:19.219Z,75.13
2018-11-23T12:02:48.055Z,77.70
2018-11-23T12:05:16.292Z,72.30
2018-11-23T12:07:44.599Z,73.03
2018-11-23T12:10:18.656Z,73.23
2018-11-23T12:12:46.890Z,72.30
2018-11-23T12:15:15.665Z,68.50
2018-11-23T12:17:44.076Z,70.37
2018-11-23T12:20:14.593Z,74.53
2018-11-23T12:22:42.992Z,70.13
2018-11-23T12:25:11.548Z,69.87
2018-11-23T12:27:39.807Z,65.83
2018-11-23T12:30:10.339Z,70.20
2018-11-23T12:32:38.577Z,73.60
2018-11-23T12:35:08.130Z,75.83
2018-11-23T12:37:36.410Z,74.43
2018-11-23T12:40:04.949Z,68.07
2018-11-23T12:42:33.284Z,69.47
2018-11-23T12:45:01.566Z,75.33
2018-11-23T12:47:29.847Z,72.07
2018-11-23T12:49:58.145Z,72.90
2018-11-23T12:52:26.422Z,70.67
2018-11-23T12:54:54.754Z,72.83
2018-11-23T12:57:23.117Z,72.77
2018-11-23T12:59:51.390Z,73.93
2018-11-23T13:02:20.886Z,74.93
2018-11-23T13:04:49.204Z,68.47
2018-11-23T13:07:17.434Z,69.17
2018-11-23T13:09:45.616Z,70.43
2018-11-23T13:15:06.946Z,63.93
2018-11-23T13:17:35.172Z,77.33
2018-11-23T13:20:03.681Z,70.17
2018-11-23T13:22:32.172Z,72.40
2018-11-23T13:25:00.437Z,69.77
2018-11-23T13:27:28.682Z,72.20
2018-11-23T13:29:56.935Z,79.07
2018-11-23T13:32:26.092Z,66.27
2018-11-23T13:34:54.482Z,71.17
2018-11-23T13:37:22.790Z,68.60
2018-11-23T13:39:51.011Z,65.43
2018-11-23T13:42:19.239Z,66.67
2018-11-23T13:44:47.538Z,67.97
2018-11-23T13:47:15.857Z,68.90
2018-11-23T13:49:44.095Z,63.27
2018-11-23T13:52:12.366Z,69.47
2018-11-23T13:54:40.597Z,71.20
2018-11-23T14:00:01.837Z,61.77
2018-11-23T14:02:30.200Z,67.03
2018-11-23T14:04:59.762Z,66.97
2018-11-23T14:10:23.066Z,70.63
2018-11-23T14:12:52.399Z,73.87
2018-11-23T14:15:23.025Z,62.70
2018-11-23T14:17:52.239Z,76.30
2018-11-23T14:20:22.487Z,67.23
2018-11-23T14:22:51.527Z,63.07
2018-11-23T14:25:21.164Z,64.17
2018-11-23T14:27:50.052Z,68.40
2018-11-23T14:30:38.167Z,70.77
2018-11-23T14:33:06.428Z,70.77
2018-11-23T14:35:35.413Z,71.77
2018-11-23T14:38:04.005Z,68.47
2018-11-23T14:40:32.289Z,68.07
2018-11-23T14:43:00.670Z,68.77
2018-11-23T14:45:30.381Z,72.90
2018-11-23T14:48:01.456Z,72.43
2018-11-23T14:50:30.997Z,63.73
2018-11-23T14:52:59.827Z,69.33
2018-11-23T14:55:28.307Z,70.93
2018-11-23T14:57:56.820Z,67.47
2018-11-23T15:00:29.687Z,74.07
2018-11-23T15:02:59.181Z,71.37
2018-11-23T15:05:27.557Z,71.10
2018-11-23T15:07:56.732Z,76.82
2018-11-23T15:10:37.719Z,73.77
2018-11-23T15:13:06.944Z,84.47
2018-11-23T15:15:38.448Z,76.70
2018-11-23T15:18:07.701Z,88.23
2018-11-23T15:20:42.042Z,83.47
2018-11-23T15:23:13.907Z,77.57
2018-11-23T15:25:43.397Z,81.40
2018-11-23T15:28:13.414Z,82.03
2018-11-23T15:33:42.554Z,77.03
2018-11-23T15:36:11.368Z,86.27
2018-11-23T15:38:39.645Z,91.77
2018-11-23T15:41:08.125Z,95.07
2018-11-23T15:43:36.412Z,99.73
2018-11-23T15:46:04.947Z,86.77
2018-11-23T15:48:33.165Z,90.10
2018-11-23T15:51:08.922Z,90.00
2018-11-23T15:53:37.319Z,88.93
2018-11-23T15:56:05.942Z,85.37
2018-11-23T15:58:34.200Z,94.03
2018-11-23T16:01:02.514Z,91.77
2018-11-23T16:03:53.177Z,97.27
2018-11-23T16:06:21.966Z,90.13
2018-11-23T16:08:50.690Z,92.80
2018-11-23T16:11:19.276Z,99.17
2018-11-23T16:13:47.824Z,103.80
2018-11-23T16:16:16.094Z,107.50
2018-11-23T16:18:44.428Z,127.53
2018-11-23T16:21:12.722Z,100.90
2018-11-23T16:23:42.464Z,102.17
2018-11-23T16:26:12.202Z,111.10
2018-11-23T16:28:40.722Z,102.80
2018-11-23T16:31:10.476Z,108.77
2018-11-23T16:33:39.155Z,143.93
2018-11-23T16:36:07.648Z,125.50
2018-11-23T16:38:36.650Z,110.10
2018-11-23T16:41:06.483Z,105.57
2018-11-23T16:43:34.837Z,108.87
2018-11-23T16:46:03.468Z,99.97
2018-11-23T16:51:24.832Z,105.23
2018-11-23T16:53:53.140Z,109.93
2018-11-23T16:56:22.071Z,100.27
2018-11-23T16:58:51.521Z,105.10
2018-11-23T17:01:19.902Z,104.90
2018-11-23T17:03:48.349Z,112.87
2018-11-23T17:06:17.475Z,101.47
2018-11-23T17:08:45.915Z,103.20
2018-11-23T17:11:15.150Z,92.83
2018-11-23T17:13:43.479Z,90.57
2018-11-23T17:16:11.885Z,104.07
2018-11-23T17:18:40.632Z,92.47
2018-11-23T17:21:08.915Z,81.23
2018-11-23T17:23:37.346Z,94.30
2018-11-23T17:26:05.982Z,83.13
2018-11-23T17:28:34.562Z,88.27
2018-11-23T17:33:57.002Z,95.50
2018-11-23T17:36:26.016Z,93.00
2018-11-23T17:38:54.876Z,88.40
2018-11-23T17:41:23.786Z,84.77
2018-11-23T17:43:52.545Z,93.17
2018-11-23T17:46:20.839Z,88.27
2018-11-23T17:48:49.101Z,78.90
2018-11-23T17:51:17.436Z,80.63
2018-11-23T17:53:46.620Z,81.87
2018-11-23T17:56:13.956Z,70.13
2018-11-23T17:58:42.197Z,81.63
2018-11-23T18:01:10.497Z,78.17
2018-11-23T18:03:38.833Z,99.40
2018-11-23T18:06:07.631Z,89.67
2018-11-23T18:08:38.970Z,78.47
2018-11-23T18:11:06.993Z,90.67
2018-11-23T18:13:37.256Z,78.87
2018-11-23T18:16:06.298Z,91.73
2018-11-23T18:18:35.322Z,97.40
2018-11-23T18:21:04.394Z,110.53
2018-11-23T18:23:33.690Z,121.50
2018-11-23T18:26:03.242Z,100.33
2018-11-23T18:28:31.744Z,88.27
2018-11-23T18:31:01.386Z,110.47
2018-11-23T18:33:29.965Z,100.13
2018-11-23T18:35:59.256Z,89.50
2018-11-23T18:38:36.052Z,95.13
2018-11-23T18:41:05.231Z,89.60
2018-11-23T18:43:33.507Z,91.83
2018-11-23T18:46:01.841Z,88.50
2018-11-23T18:48:30.207Z,83.93
2018-11-23T18:50:58.490Z,74.57
2018-11-23T18:53:26.732Z,84.13
2018-11-23T18:55:55.032Z,73.97
2018-11-23T18:58:23.267Z,86.90
2018-11-23T19:00:51.595Z,73.83
2018-11-23T19:03:19.993Z,82.27
2018-11-23T19:05:49.354Z,82.07
2018-11-23T19:08:17.610Z,77.50
2018-11-23T19:10:48.988Z,71.40
2018-11-23T19:13:17.678Z,81.10
2018-11-23T19:15:46.008Z,71.97
2018-11-23T19:18:14.380Z,73.87
2018-11-23T19:20:42.679Z,77.47
2018-11-23T19:23:17.445Z,86.43
2018-11-23T19:25:45.791Z,79.73
2018-11-23T19:28:14.044Z,77.63
2018-11-23T19:33:36.766Z,72.97
2018-11-23T19:36:05.145Z,74.97
2018-11-23T19:38:35.317Z,83.50
2018-11-23T19:41:03.699Z,78.07
2018-11-23T19:43:33.850Z,83.43
2018-11-23T19:46:03.679Z,131.17
2018-11-23T19:48:32.854Z,76.17
2018-11-23T19:51:01.895Z,89.57
2018-11-23T19:53:30.452Z,91.63
2018-11-23T19:55:59.480Z,87.77
2018-11-23T19:58:28.818Z,84.03
2018-11-23T20:00:57.482Z,79.23
2018-11-23T20:03:28.875Z,75.77
2018-11-23T20:05:58.534Z,75.60
2018-11-23T20:08:27.774Z,75.43
2018-11-23T20:10:57.081Z,72.30
2018-11-23T20:13:25.751Z,73.80
2018-11-23T20:15:54.572Z,73.27
2018-11-23T20:18:33.363Z,94.97
2018-11-23T20:21:02.037Z,87.97
2018-11-23T20:23:30.689Z,78.83
2018-11-23T20:25:59.065Z,75.40
2018-11-23T20:31:20.032Z,79.33
2018-11-23T20:33:48.395Z,75.17
2018-11-23T20:36:17.229Z,80.30
2018-11-23T20:38:46.714Z,80.20
2018-11-23T20:41:15.019Z,78.53
2018-11-23T20:43:43.289Z,79.90
2018-11-23T20:46:11.541Z,71.97
2018-11-23T20:48:39.882Z,72.93
2018-11-23T20:51:09.509Z,77.93
2018-11-23T20:53:37.891Z,73.30
2018-11-23T20:56:06.225Z,74.20
2018-11-23T20:58:35.160Z,78.50
2018-11-23T21:03:57.301Z,62.47
2018-11-23T21:06:25.895Z,65.97
2018-11-23T21:08:54.486Z,67.83
2018-11-23T21:11:22.848Z,62.17
2018-11-23T21:13:51.283Z,62.10
2018-11-23T21:16:20.530Z,65.30
2018-11-23T21:18:50.400Z,56.47
2018-11-23T21:21:18.734Z,64.63
2018-11-23T21:23:47.083Z,64.13
2018-11-23T21:26:15.812Z,58.67
2018-11-23T21:28:44.989Z,63.97
2018-11-23T21:31:13.751Z,64.43
2018-11-23T21:33:42.536Z,66.17
2018-11-23T21:36:11.480Z,60.80
2018-11-23T21:38:39.945Z,66.50
2018-11-23T21:41:09.588Z,58.10
2018-11-23T21:43:38.123Z,54.50
2018-11-23T21:46:06.478Z,62.03
2018-11-23T21:48:35.755Z,60.80
2018-11-23T21:51:04.184Z,60.87
2018-11-23T21:53:32.509Z,59.67
2018-11-23T21:56:00.741Z,68.30
2018-11-23T21:58:28.973Z,68.57
2018-11-23T22:00:57.259Z,67.00
2018-11-23T22:03:25.487Z,64.77
2018-11-23T22:05:53.752Z,57.80
2018-11-23T22:08:22.106Z,59.97
2018-11-23T22:10:50.479Z,59.90
2018-11-23T22:13:18.718Z,62.17
2018-11-23T22:15:47.814Z,58.37
2018-11-23T22:18:16.175Z,61.13
2018-11-23T22:20:44.949Z,58.30
2018-11-23T22:23:14.625Z,59.43
2018-11-23T22:25:43.653Z,58.40
2018-11-23T22:28:11.973Z,56.33
2018-11-23T22:30:41.681Z,54.07
2018-11-23T22:33:11.642Z,50.87
2018-11-23T22:35:40.213Z,52.80
2018-11-23T22:38:08.555Z,54.23
2018-11-23T22:40:37.492Z,50.07
2018-11-23T22:43:07.591Z,49.50
2018-11-23T22:45:37.128Z,50.23
2018-11-23T22:48:05.444Z,47.77
2018-11-23T22:50:34.001Z,50.37
2018-11-23T22:53:02.356Z,44.50
2018-11-23T22:55:31.952Z,48.57
2018-11-23T22:58:01.326Z,51.03
2018-11-23T23:00:35.882Z,44.53
2018-11-23T23:03:04.447Z,48.03
2018-11-23T23:05:33.623Z,48.17
2018-11-23T23:08:01.892Z,43.00
2018-11-23T23:10:31.490Z,44.00
2018-11-23T23:12:59.817Z,47.03
2018-11-23T23:15:28.146Z,46.40
2018-11-23T23:17:57.281Z,42.77
2018-11-23T23:20:25.530Z,45.77
2018-11-23T23:22:53.775Z,46.53
2018-11-23T23:25:22.059Z,44.70
2018-11-23T23:27:50.331Z,50.13
2018-11-23T23:30:19.011Z,47.13
2018-11-23T23:32:48.137Z,47.63
2018-11-23T23:35:17.063Z,46.70
2018-11-23T23:37:45.436Z,45.90
2018-11-23T23:40:15.830Z,45.93
2018-11-23T23:42:44.118Z,46.07
2018-11-23T23:45:14.263Z,49.30
2018-11-23T23:47:42.574Z,46.43
2018-11-23T23:50:16.215Z,47.40
2018-11-23T23:52:44.494Z,48.43
2018-11-23T23:55:12.771Z,47.47
2018-11-23T23:57:41.891Z,49.83
